sensor_id;sensor_type;location;lat;lon;timestamp;P1;P2;P0
74436;PMS7003;62868;52.360;30.424;2023-04-25T00:01:17;0.3;0.3;0.3
74436;PMS7003;62868;52.360;30.424;2023-04-25T00:06:53;0;0;0
74436;PMS7003;62868;52.360;30.424;2023-04-25T00:11:07;0.3;0.3;0
74436;PMS7003;62868;52.360;30.424;2023-04-25T00:16:07;1;0.7;0.3
74436;PMS7003;62868;52.360;30.424;2023-04-25T00:21:53;0.7;0.3;0.3
74436;PMS7003;62868;52.360;30.424;2023-04-25T00:26:33;1.3;0.5;0
74436;PMS7003;62868;52.360;30.424;2023-04-25T00:31:15;1.7;1.3;1
74436;PMS7003;62868;52.360;30.424;2023-04-25T00:36:37;2;2;1.3
74436;PMS7003;62868;52.360;30.424;2023-04-25T00:41:53;2;1.5;1.3
74436;PMS7003;62868;52.360;30.424;2023-04-25T00:46:07;1.3;1.3;0.7
74436;PMS7003;62868;52.360;30.424;2023-04-25T00:51:56;1.3;1.3;1
74436;PMS7003;62868;52.360;30.424;2023-04-25T00:56:09;1;1;0.3
74436;PMS7003;62868;52.360;30.424;2023-04-25T01:01:55;1;1;1
74436;PMS7003;62868;52.360;30.424;2023-04-25T01:06:29;1;1;1
74436;PMS7003;62868;52.360;30.424;2023-04-25T01:11:43;1.3;1.3;1
74436;PMS7003;62868;52.360;30.424;2023-04-25T01:16:53;1.7;1.7;1
74436;PMS7003;62868;52.360;30.424;2023-04-25T01:21:53;0.8;0.8;0.3
74436;PMS7003;62868;52.360;30.424;2023-04-25T01:26:08;0.3;0.3;0.3
74436;PMS7003;62868;52.360;30.424;2023-04-25T01:31:53;1;0.7;0.7
74436;PMS7003;62868;52.360;30.424;2023-04-25T01:36:45;1.3;0.7;0.7
74436;PMS7003;62868;52.360;30.424;2023-04-25T01:41:17;0.8;0.5;0.5
74436;PMS7003;62868;52.360;30.424;2023-04-25T01:46:27;0.7;0.7;0
74436;PMS7003;62868;52.360;30.424;2023-04-25T01:51:55;0.3;0.3;0.3
74436;PMS7003;62868;52.360;30.424;2023-04-25T01:56:19;1;1;1
74436;PMS7003;62868;52.360;30.424;2023-04-25T02:01:43;1;0.8;0.8
74436;PMS7003;62868;52.360;30.424;2023-04-25T02:06:41;1;0.7;0.7
74436;PMS7003;62868;52.360;30.424;2023-04-25T02:11:35;1.3;1.3;1
74436;PMS7003;62868;52.360;30.424;2023-04-25T02:16:17;0.3;0.3;0
74436;PMS7003;62868;52.360;30.424;2023-04-25T02:21:33;0.3;0;0
74436;PMS7003;62868;52.360;30.424;2023-04-25T02:26:19;0.7;0.7;0
74436;PMS7003;62868;52.360;30.424;2023-04-25T02:31:33;0.7;0.3;0
74436;PMS7003;62868;52.360;30.424;2023-04-25T02:36:33;0.5;0.5;0.5
74436;PMS7003;62868;52.360;30.424;2023-04-25T02:41:41;2;1.3;1
74436;PMS7003;62868;52.360;30.424;2023-04-25T02:46:39;1.3;0.7;0.3
74436;PMS7003;62868;52.360;30.424;2023-04-25T02:51:55;1;0.7;0.7
74436;PMS7003;62868;52.360;30.424;2023-04-25T02:56:25;1;0.5;0.3
74436;PMS7003;62868;52.360;30.424;2023-04-25T03:01:07;0.3;0.3;0
74436;PMS7003;62868;52.360;30.424;2023-04-25T03:06:19;0.3;0;0
74436;PMS7003;62868;52.360;30.424;2023-04-25T03:11:55;0.7;0.7;0.3
74436;PMS7003;62868;52.360;30.424;2023-04-25T03:16:29;1;0.5;0.5
74436;PMS7003;62868;52.360;30.424;2023-04-25T03:21:41;0.7;0.7;0
74436;PMS7003;62868;52.360;30.424;2023-04-25T03:26:53;1;1;0.3
74436;PMS7003;62868;52.360;30.424;2023-04-25T03:31:19;1;1;0.3
74436;PMS7003;62868;52.360;30.424;2023-04-25T03:36:19;1.5;1.5;1
74436;PMS7003;62868;52.360;30.424;2023-04-25T03:41:23;1.3;1.3;1
74436;PMS7003;62868;52.360;30.424;2023-04-25T03:46:53;1.3;1;1
74436;PMS7003;62868;52.360;30.424;2023-04-25T03:51:19;1;1;0.3
74436;PMS7003;62868;52.360;30.424;2023-04-25T03:56:51;0.8;0.5;0.5
74436;PMS7003;62868;52.360;30.424;2023-04-25T04:01:51;0.3;0.3;0
74436;PMS7003;62868;52.360;30.424;2023-04-25T04:06:07;0.7;0.7;0.7
74436;PMS7003;62868;52.360;30.424;2023-04-25T04:11:29;2;1;0.3
74436;PMS7003;62868;52.360;30.424;2023-04-25T04:16:43;2;1.8;1.3
74436;PMS7003;62868;52.360;30.424;2023-04-25T04:21:37;1.7;1.7;1.3
74436;PMS7003;62868;52.360;30.424;2023-04-25T04:26:45;2.3;1.7;1.3
74436;PMS7003;62868;52.360;30.424;2023-04-25T04:31:21;2.8;2;1.8
74436;PMS7003;62868;52.360;30.424;2023-04-25T04:36:39;1.7;1.7;1.7
74436;PMS7003;62868;52.360;30.424;2023-04-25T04:41:37;1;1;1
74436;PMS7003;62868;52.360;30.424;2023-04-25T04:46:07;2;1.7;1.7
74436;PMS7003;62868;52.360;30.424;2023-04-25T04:51:25;1.3;1.3;1
74436;PMS7003;62868;52.360;30.424;2023-04-25T04:56:53;2.3;2;1.7
74436;PMS7003;62868;52.360;30.424;2023-04-25T05:01:29;1;1;1
74436;PMS7003;62868;52.360;30.424;2023-04-25T05:06:41;2;2;1.3
74436;PMS7003;62868;52.360;30.424;2023-04-25T05:11:09;1.3;1.3;1
74436;PMS7003;62868;52.360;30.424;2023-04-25T05:16:29;1;1;1
74436;PMS7003;62868;52.360;30.424;2023-04-25T05:21:31;2.3;1.7;1.3
74436;PMS7003;62868;52.360;30.424;2023-04-25T05:26:07;2;1.7;1.3
74436;PMS7003;62868;52.360;30.424;2023-04-25T05:31:08;2;1.3;1.3
74436;PMS7003;62868;52.360;30.424;2023-04-25T05:36:33;1.3;1.3;1
74436;PMS7003;62868;52.360;30.424;2023-04-25T05:41:19;2;1.3;1
74436;PMS7003;62868;52.360;30.424;2023-04-25T05:46:07;1.7;1.7;1.3
74436;PMS7003;62868;52.360;30.424;2023-04-25T05:51:09;1.8;1.5;1
74436;PMS7003;62868;52.360;30.424;2023-04-25T05:56:53;2;1.7;1.3
74436;PMS7003;62868;52.360;30.424;2023-04-25T06:01:07;1.7;1.7;1
74436;PMS7003;62868;52.360;30.424;2023-04-25T06:06:17;2.3;1.3;1
74436;PMS7003;62868;52.360;30.424;2023-04-25T06:11:35;2.3;1.8;1.5
74436;PMS7003;62868;52.360;30.424;2023-04-25T06:16:53;1.3;1.3;1.3
74436;PMS7003;62868;52.360;30.424;2023-04-25T06:21:29;1.7;1;1
74436;PMS7003;62868;52.360;30.424;2023-04-25T06:26:13;1;1;1
74436;PMS7003;62868;52.360;30.424;2023-04-25T06:31:53;1;1;0.3
74436;PMS7003;62868;52.360;30.424;2023-04-25T06:36:07;1;1;0.7
74436;PMS7003;62868;52.360;30.424;2023-04-25T06:41:31;1;0.7;0.7
74436;PMS7003;62868;52.360;30.424;2023-04-25T06:46:25;0.5;0.5;0.5
74436;PMS7003;62868;52.360;30.424;2023-04-25T06:51:51;0.7;0.7;0.7
74436;PMS7003;62868;52.360;30.424;2023-04-25T06:56:07;1;1;0.3
74436;PMS7003;62868;52.360;30.424;2023-04-25T07:01:51;0.3;0.3;0.3
74436;PMS7003;62868;52.360;30.424;2023-04-25T07:06:55;1.3;0.5;0.5
74436;PMS7003;62868;52.360;30.424;2023-04-25T07:11:29;1;1;1
74436;PMS7003;62868;52.360;30.424;2023-04-25T07:16:17;1;0.7;0.7
74436;PMS7003;62868;52.360;30.424;2023-04-25T07:21:33;0.3;0.3;0.3
74436;PMS7003;62868;52.360;30.424;2023-04-25T07:26:29;1.5;1.3;1
74436;PMS7003;62868;52.360;30.424;2023-04-25T07:31:45;2.7;2.3;2
74436;PMS7003;62868;52.360;30.424;2023-04-25T07:36:33;5;5;4
74436;PMS7003;62868;52.360;30.424;2023-04-25T07:41:55;2.7;2.3;1.3
74436;PMS7003;62868;52.360;30.424;2023-04-25T07:46:31;2.5;2;1.8
74436;PMS7003;62868;52.360;30.424;2023-04-25T07:51:07;0.7;0.7;0
74436;PMS7003;62868;52.360;30.424;2023-04-25T07:56:25;0.3;0.3;0
74436;PMS7003;62868;52.360;30.424;2023-04-25T08:01:53;0;0;0
74436;PMS7003;62868;52.360;30.424;2023-04-25T08:06:17;0;0;0
74436;PMS7003;62868;52.360;30.424;2023-04-25T08:11:41;0;0;0
74436;PMS7003;62868;52.360;30.424;2023-04-25T08:16:41;1;0.7;0.7
74436;PMS7003;62868;52.360;30.424;2023-04-25T08:21:07;0.5;0.5;0.3
74436;PMS7003;62868;52.360;30.424;2023-04-25T08:26:28;1.7;1.3;1.3
74436;PMS7003;62868;52.360;30.424;2023-04-25T08:31:07;1.7;1;0.7
74436;PMS7003;62868;52.360;30.424;2023-04-25T08:36:19;0.3;0.3;0
74436;PMS7003;62868;52.360;30.424;2023-04-25T08:41:45;0.5;0.3;0.3
74436;PMS7003;62868;52.360;30.424;2023-04-25T08:46:36;0.3;0.3;0
74436;PMS7003;62868;52.360;30.424;2023-04-25T08:51:22;1;1;0.3
74436;PMS7003;62868;52.360;30.424;2023-04-25T08:56:40;1;0.3;0.3
74436;PMS7003;62868;52.360;30.424;2023-04-25T09:01:45;0;0;0
74436;PMS7003;62868;52.360;30.424;2023-04-25T09:06:41;1;1;1
74436;PMS7003;62868;52.360;30.424;2023-04-25T09:11:27;0;0;0
74436;PMS7003;62868;52.360;30.424;2023-04-25T09:16:56;0.3;0.3;0
74436;PMS7003;62868;52.360;30.424;2023-04-25T09:21:54;0;0;0
74436;PMS7003;62868;52.360;30.424;2023-04-25T09:26:53;0.7;0.3;0.3
74436;PMS7003;62868;52.360;30.424;2023-04-25T09:31:32;0.3;0.3;0.3
74436;PMS7003;62868;52.360;30.424;2023-04-25T09:36:45;1;0.3;0.3
74436;PMS7003;62868;52.360;30.424;2023-04-25T09:41:31;0.8;0.5;0.5
74436;PMS7003;62868;52.360;30.424;2023-04-25T09:46:13;0;0;0
74436;PMS7003;62868;52.360;30.424;2023-04-25T09:51:08;0.7;0.7;0.7
74436;PMS7003;62868;52.360;30.424;2023-04-25T09:56:53;1.3;0.7;0.7
74436;PMS7003;62868;52.360;30.424;2023-04-25T10:01:19;1;1;0.8
74436;PMS7003;62868;52.360;30.424;2023-04-25T10:06:54;2;1.7;1.3
74436;PMS7003;62868;52.360;30.424;2023-04-25T10:11:53;1;0.7;0.3
74436;PMS7003;62868;52.360;30.424;2023-04-25T10:16:07;1;1;0.8
74436;PMS7003;62868;52.360;30.424;2023-04-25T10:21:29;0.3;0.3;0.3
74436;PMS7003;62868;52.360;30.424;2023-04-25T10:26:31;0.7;0.3;0.3
74436;PMS7003;62868;52.360;30.424;2023-04-25T10:31:44;0.7;0.3;0.3
74436;PMS7003;62868;52.360;30.424;2023-04-25T10:36:49;0.5;0.5;0.5
74436;PMS7003;62868;52.360;30.424;2023-04-25T10:41:46;0.7;0.3;0
74436;PMS7003;62868;52.360;30.424;2023-04-25T10:46:54;1;1;0.3
74436;PMS7003;62868;52.360;30.424;2023-04-25T10:51:39;2.7;2;1.7
74436;PMS7003;62868;52.360;30.424;2023-04-25T10:56:20;1;1;0.8
74436;PMS7003;62868;52.360;30.424;2023-04-25T11:01:27;1.3;1.3;1
74436;PMS7003;62868;52.360;30.424;2023-04-25T11:07:00;1;1;1
74436;PMS7003;62868;52.360;30.424;2023-04-25T11:11:16;1.3;0.7;0.7
74436;PMS7003;62868;52.360;30.424;2023-04-25T11:16:43;0.3;0.3;0
74436;PMS7003;62868;52.360;30.424;2023-04-25T11:21:41;0;0;0
74436;PMS7003;62868;52.360;30.424;2023-04-25T11:26:07;0.3;0.3;0.3
74436;PMS7003;62868;52.360;30.424;2023-04-25T11:31:42;0.3;0.3;0.3
74436;PMS7003;62868;52.360;30.424;2023-04-25T11:36:42;0.3;0.3;0.3
74436;PMS7003;62868;52.360;30.424;2023-04-25T11:41:20;1.7;1.7;1
74436;PMS7003;62868;52.360;30.424;2023-04-25T11:46:46;1.3;0.7;0.7
74436;PMS7003;62868;52.360;30.424;2023-04-25T11:51:54;0.7;0.7;0.3
74436;PMS7003;62868;52.360;30.424;2023-04-25T11:56:19;0.3;0.3;0.3
74436;PMS7003;62868;52.360;30.424;2023-04-25T12:01:38;1.3;1;1
74436;PMS7003;62868;52.360;30.424;2023-04-25T12:06:25;1.7;1.3;1.3
74436;PMS7003;62868;52.360;30.424;2023-04-25T12:11:42;0.8;0.8;0.8
74436;PMS7003;62868;52.360;30.424;2023-04-25T12:16:30;0.3;0.3;0
74436;PMS7003;62868;52.360;30.424;2023-04-25T12:21:09;0;0;0
74436;PMS7003;62868;52.360;30.424;2023-04-25T12:26:58;0.3;0;0
74436;PMS7003;62868;52.360;30.424;2023-04-25T12:31:56;1.3;1.3;1.3
74436;PMS7003;62868;52.360;30.424;2023-04-25T12:36:19;1.3;1.3;0.7
74436;PMS7003;62868;52.360;30.424;2023-04-25T12:41:53;1.3;0.7;0.7
74436;PMS7003;62868;52.360;30.424;2023-04-25T12:46:46;0.7;0.7;0.3
74436;PMS7003;62868;52.360;30.424;2023-04-25T12:51:19;1;1;0.8
74436;PMS7003;62868;52.360;30.424;2023-04-25T12:56:26;1.3;1.3;1
74436;PMS7003;62868;52.360;30.424;2023-04-25T13:01:54;0.7;0.3;0.3
74436;PMS7003;62868;52.360;30.424;2023-04-25T13:06:08;0;0;0
74436;PMS7003;62868;52.360;30.424;2023-04-25T13:11:42;0.3;0.3;0.3
74436;PMS7003;62868;52.360;30.424;2023-04-25T13:16:54;1.7;1.7;1
74436;PMS7003;62868;52.360;30.424;2023-04-25T13:21:38;1;1;0.7
74436;PMS7003;62868;52.360;30.424;2023-04-25T13:26:18;0.7;0.7;0.7
74436;PMS7003;62868;52.360;30.424;2023-04-25T13:31:20;0;0;0
74436;PMS7003;62868;52.360;30.424;2023-04-25T13:36:08;0;0;0
74436;PMS7003;62868;52.360;30.424;2023-04-25T13:41:46;0.3;0.3;0.3
74436;PMS7003;62868;52.360;30.424;2023-04-25T13:46:08;0.3;0.3;0
74436;PMS7003;62868;52.360;30.424;2023-04-25T13:51:26;0;0;0
74436;PMS7003;62868;52.360;30.424;2023-04-25T13:56:38;0;0;0
74436;PMS7003;62868;52.360;30.424;2023-04-25T14:01:08;0;0;0
74436;PMS7003;62868;52.360;30.424;2023-04-25T14:06:26;0.3;0.3;0
74436;PMS7003;62868;52.360;30.424;2023-04-25T14:11:52;0;0;0
74436;PMS7003;62868;52.360;30.424;2023-04-25T14:16:08;0.3;0.3;0.3
74436;PMS7003;62868;52.360;30.424;2023-04-25T14:21:42;0;0;0
74436;PMS7003;62868;52.360;30.424;2023-04-25T14:26:40;0;0;0
74436;PMS7003;62868;52.360;30.424;2023-04-25T14:31:18;0;0;0
74436;PMS7003;62868;52.360;30.424;2023-04-25T14:36:54;0.3;0.3;0
74436;PMS7003;62868;52.360;30.424;2023-04-25T14:41:08;0;0;0
74436;PMS7003;62868;52.360;30.424;2023-04-25T14:46:08;0.3;0.3;0
74436;PMS7003;62868;52.360;30.424;2023-04-25T14:51:46;0;0;0
74436;PMS7003;62868;52.360;30.424;2023-04-25T14:56:56;0;0;0
74436;PMS7003;62868;52.360;30.424;2023-04-25T15:01:18;0;0;0
74436;PMS7003;62868;52.360;30.424;2023-04-25T15:06:38;0.3;0.3;0
74436;PMS7003;62868;52.360;30.424;2023-04-25T15:11:56;0;0;0
74436;PMS7003;62868;52.360;30.424;2023-04-25T15:16:34;0;0;0
74436;PMS7003;62868;52.360;30.424;2023-04-25T15:21:30;0;0;0
74436;PMS7003;62868;52.360;30.424;2023-04-25T15:26:44;0;0;0
74436;PMS7003;62868;52.360;30.424;2023-04-25T15:31:56;0.3;0.3;0
74436;PMS7003;62868;52.360;30.424;2023-04-25T15:36:46;0.3;0;0
74436;PMS7003;62868;52.360;30.424;2023-04-25T15:41:08;0;0;0
74436;PMS7003;62868;52.360;30.424;2023-04-25T15:46:54;0;0;0
74436;PMS7003;62868;52.360;30.424;2023-04-25T15:51:46;0;0;0
74436;PMS7003;62868;52.360;30.424;2023-04-25T15:56:34;0;0;0
74436;PMS7003;62868;52.360;30.424;2023-04-25T16:01:08;0;0;0
74436;PMS7003;62868;52.360;30.424;2023-04-25T16:06:54;0.3;0.3;0.3
74436;PMS7003;62868;52.360;30.424;2023-04-25T16:11:20;0;0;0
74436;PMS7003;62868;52.360;30.424;2023-04-25T16:16:40;0;0;0
74436;PMS7003;62868;52.360;30.424;2023-04-25T16:21:52;0.3;0.3;0
74436;PMS7003;62868;52.360;30.424;2023-04-25T16:26:18;0.3;0;0
74436;PMS7003;62868;52.360;30.424;2023-04-25T16:31:16;0.3;0.3;0
74436;PMS7003;62868;52.360;30.424;2023-04-25T16:36:20;0;0;0
74436;PMS7003;62868;52.360;30.424;2023-04-25T16:41:08;0.3;0.3;0.3
74436;PMS7003;62868;52.360;30.424;2023-04-25T16:46:38;0;0;0
74436;PMS7003;62868;52.360;30.424;2023-04-25T16:51:34;1;0.3;0
74436;PMS7003;62868;52.360;30.424;2023-04-25T16:56:26;0;0;0
74436;PMS7003;62868;52.360;30.424;2023-04-25T17:01:38;0;0;0
74436;PMS7003;62868;52.360;30.424;2023-04-25T17:06:54;0.7;0.3;0
74436;PMS7003;62868;52.360;30.424;2023-04-25T17:11:38;0.3;0.3;0
74436;PMS7003;62868;52.360;30.424;2023-04-25T17:16:33;0.7;0.3;0
74436;PMS7003;62868;52.360;30.424;2023-04-25T17:21:30;0.3;0.3;0.3
74436;PMS7003;62868;52.360;30.424;2023-04-25T17:26:54;0;0;0
74436;PMS7003;62868;52.360;30.424;2023-04-25T17:31:08;0;0;0
74436;PMS7003;62868;52.360;30.424;2023-04-25T17:36:20;0.7;0.7;0.3
74436;PMS7003;62868;52.360;30.424;2023-04-25T17:41:54;0.8;0.8;0
74436;PMS7003;62868;52.360;30.424;2023-04-25T17:46:32;1;1;0.3
74436;PMS7003;62868;52.360;30.424;2023-04-25T17:51:14;1.7;1;1
74436;PMS7003;62868;52.360;30.424;2023-04-25T17:56:26;2;1.8;1
74436;PMS7003;62868;52.360;30.424;2023-04-25T18:01:52;3.7;3.3;2.7
74436;PMS7003;62868;52.360;30.424;2023-04-25T18:06:22;3.7;3.3;2.3
74436;PMS7003;62868;52.360;30.424;2023-04-25T18:11:54;5.3;4.7;4
74436;PMS7003;62868;52.360;30.424;2023-04-25T18:16:34;5;4.3;3.5
74436;PMS7003;62868;52.360;30.424;2023-04-25T18:21:42;3.7;3;2.3
74436;PMS7003;62868;52.360;30.424;2023-04-25T18:26:30;2.3;2.3;2
74436;PMS7003;62868;52.360;30.424;2023-04-25T18:31:16;3.7;2.3;1.7
74436;PMS7003;62868;52.360;30.424;2023-04-25T18:36:54;3.3;2.8;2.3
74436;PMS7003;62868;52.360;30.424;2023-04-25T18:41:54;2.3;1.7;1.3
74436;PMS7003;62868;52.360;30.424;2023-04-25T18:46:54;3;2.3;2
74436;PMS7003;62868;52.360;30.424;2023-04-25T18:51:54;2.3;2.3;1.7
74436;PMS7003;62868;52.360;30.424;2023-04-25T18:56:36;1;0.8;0.8
74436;PMS7003;62868;52.360;30.424;2023-04-25T19:01:46;0.3;0.3;0
74436;PMS7003;62868;52.360;30.424;2023-04-25T19:06:26;0.3;0.3;0.3
74436;PMS7003;62868;52.360;30.424;2023-04-25T19:11:54;0;0;0
74436;PMS7003;62868;52.360;30.424;2023-04-25T19:16:18;0.3;0;0
74436;PMS7003;62868;52.360;30.424;2023-04-25T19:21:42;0;0;0
74436;PMS7003;62868;52.360;30.424;2023-04-25T19:26:54;0.3;0;0
74436;PMS7003;62868;52.360;30.424;2023-04-25T19:31:08;0;0;0
74436;PMS7003;62868;52.360;30.424;2023-04-25T19:36:46;0;0;0
74436;PMS7003;62868;52.360;30.424;2023-04-25T19:41:33;0;0;0
74436;PMS7003;62868;52.360;30.424;2023-04-25T19:46:14;1;0.8;0.5
74436;PMS7003;62868;52.360;30.424;2023-04-25T19:51:46;2;2;1
74436;PMS7003;62868;52.360;30.424;2023-04-25T19:56:34;1;1;1
74436;PMS7003;62868;52.360;30.424;2023-04-25T20:01:26;1;1;1
74436;PMS7003;62868;52.360;30.424;2023-04-25T20:06:32;3.3;2.8;2.3
74436;PMS7003;62868;52.360;30.424;2023-04-25T20:11:54;3;2.7;2.3
74436;PMS7003;62868;52.360;30.424;2023-04-25T20:16:08;3.3;3;2.3
74436;PMS7003;62868;52.360;30.424;2023-04-25T20:21:28;2.3;2;1.5
74436;PMS7003;62868;52.360;30.424;2023-04-25T20:26:28;2;2;1.7
74436;PMS7003;62868;52.360;30.424;2023-04-25T20:31:54;2.7;1.3;1
74436;PMS7003;62868;52.360;30.424;2023-04-25T20:36:08;0.7;0.7;0.3
74436;PMS7003;62868;52.360;30.424;2023-04-25T20:41:14;0.3;0;0
74436;PMS7003;62868;52.360;30.424;2023-04-25T20:46:54;0;0;0
74436;PMS7003;62868;52.360;30.424;2023-04-25T20:51:32;0.3;0;0
74436;PMS7003;62868;52.360;30.424;2023-04-25T20:56:20;0;0;0
74436;PMS7003;62868;52.360;30.424;2023-04-25T21:01:26;0.3;0;0
74436;PMS7003;62868;52.360;30.424;2023-04-25T21:06:56;1.3;1.3;1.3
74436;PMS7003;62868;52.360;30.424;2023-04-25T21:11:34;2.3;2.3;1.7
74436;PMS7003;62868;52.360;30.424;2023-04-25T21:16:54;1;1;0.7
74436;PMS7003;62868;52.360;30.424;2023-04-25T21:21:54;1.5;0.8;0.3
74436;PMS7003;62868;52.360;30.424;2023-04-25T21:26:20;0.7;0.3;0
74436;PMS7003;62868;52.360;30.424;2023-04-25T21:31:30;1;1;0
74436;PMS7003;62868;52.360;30.424;2023-04-25T21:36:42;0.3;0;0
74436;PMS7003;62868;52.360;30.424;2023-04-25T21:41:16;0;0;0
74436;PMS7003;62868;52.360;30.424;2023-04-25T21:46:46;0;0;0
74436;PMS7003;62868;52.360;30.424;2023-04-25T21:51:34;0.3;0;0
74436;PMS7003;62868;52.360;30.424;2023-04-25T21:56:54;0.3;0;0
74436;PMS7003;62868;52.360;30.424;2023-04-25T22:01:32;0;0;0
74436;PMS7003;62868;52.360;30.424;2023-04-25T22:06:08;0.3;0;0
74436;PMS7003;62868;52.360;30.424;2023-04-25T22:11:08;0;0;0
74436;PMS7003;62868;52.360;30.424;2023-04-25T22:16:54;0.3;0;0
74436;PMS7003;62868;52.360;30.424;2023-04-25T22:21:20;0;0;0
74436;PMS7003;62868;52.360;30.424;2023-04-25T22:26:42;0;0;0
74436;PMS7003;62868;52.360;30.424;2023-04-25T22:31:42;0;0;0
74436;PMS7003;62868;52.360;30.424;2023-04-25T22:36:30;0;0;0
74436;PMS7003;62868;52.360;30.424;2023-04-25T22:41:38;0.3;0;0
74436;PMS7003;62868;52.360;30.424;2023-04-25T22:46:34;0;0;0
74436;PMS7003;62868;52.360;30.424;2023-04-25T22:51:26;0;0;0
74436;PMS7003;62868;52.360;30.424;2023-04-25T22:56:46;0;0;0
74436;PMS7003;62868;52.360;30.424;2023-04-25T23:01:52;0;0;0
74436;PMS7003;62868;52.360;30.424;2023-04-25T23:06:08;0;0;0
74436;PMS7003;62868;52.360;30.424;2023-04-25T23:11:36;0.3;0;0
74436;PMS7003;62868;52.360;30.424;2023-04-25T23:16:52;0;0;0
74436;PMS7003;62868;52.360;30.424;2023-04-25T23:21:10;0;0;0
74436;PMS7003;62868;52.360;30.424;2023-04-25T23:26:18;0;0;0
74436;PMS7003;62868;52.360;30.424;2023-04-25T23:31:42;0;0;0
74436;PMS7003;62868;52.360;30.424;2023-04-25T23:36:54;0;0;0
74436;PMS7003;62868;52.360;30.424;2023-04-25T23:41:52;0;0;0
74436;PMS7003;62868;52.360;30.424;2023-04-25T23:46:08;0;0;0
74436;PMS7003;62868;52.360;30.424;2023-04-25T23:51:51;0;0;0
74436;PMS7003;62868;52.360;30.424;2023-04-25T23:56:20;0;0;0
